Time;durP1;ratioP1;P1;durP2;ratioP2;P2;SDS_P1;SDS_P2;PMS_P1;PMS_P2;Temp;Humidity;BMP_temperature;BMP_pressure;BME280_temperature;BME280_humidity;BME280_pressure;Samples;Min_cycle;Max_cycle;Signal;HPM_P1;HPM_P2
2021/04/17 00:00:17;;;;;;;14.88;9.50;;;6.10;99.90;;;;;;5070813;28;20396;-63
2021/04/17 00:02:43;;;;;;;15.70;9.80;;;6.10;99.90;;;;;;5071943;28;20372;-62
2021/04/17 00:05:10;;;;;;;13.68;8.45;;;6.10;99.90;;;;;;5069528;28;22517;-63
2021/04/17 00:07:36;;;;;;;14.73;8.40;;;6.20;99.90;;;;;;5069862;28;20388;-62
2021/04/17 00:10:03;;;;;;;13.95;8.73;;;6.10;99.90;;;;;;5070344;28;20399;-63
2021/04/17 00:12:29;;;;;;;15.98;8.70;;;6.20;99.90;;;;;;5069711;28;20395;-63
2021/04/17 00:14:55;;;;;;;14.07;9.10;;;6.70;99.90;;;;;;5070835;28;20368;-62
2021/04/17 00:17:20;;;;;;;13.30;8.93;;;7.50;99.90;;;;;;5069854;28;20525;-63
2021/04/17 00:19:49;;;;;;;16.50;9.35;;;6.20;99.90;;;;;;5071280;28;20384;-57
2021/04/17 00:22:14;;;;;;;14.00;9.60;;;6.10;99.90;;;;;;5070699;28;20379;-62
2021/04/17 00:24:40;;;;;;;16.55;10.50;;;6.10;99.90;;;;;;5070132;28;20410;-62
2021/04/17 00:27:07;;;;;;;14.90;9.90;;;6.20;99.90;;;;;;5068810;28;20547;-61
2021/04/17 00:29:35;;;;;;;18.02;10.55;;;6.10;99.90;;;;;;5070303;28;20470;-62
2021/04/17 00:32:02;;;;;;;13.48;9.50;;;6.10;99.90;;;;;;5068794;28;20392;-63
2021/04/17 00:34:27;;;;;;;15.30;9.57;;;6.10;99.90;;;;;;5071183;28;20398;-62
2021/04/17 00:36:53;;;;;;;14.17;9.57;;;6.10;99.90;;;;;;5070633;28;20454;-62
2021/04/17 00:39:19;;;;;;;14.35;9.60;;;6.20;99.90;;;;;;5068943;28;20469;-63
2021/04/17 00:41:44;;;;;;;16.55;10.20;;;6.10;99.90;;;;;;5069245;28;20867;-62
2021/04/17 00:44:10;;;;;;;14.73;9.93;;;6.10;99.90;;;;;;5069366;28;20375;-62
2021/04/17 00:46:36;;;;;;;15.90;9.50;;;6.20;99.90;;;;;;5067460;28;20393;-62
2021/04/17 00:49:04;;;;;;;15.52;9.40;;;6.20;99.90;;;;;;5063795;28;20729;-63
2021/04/17 00:51:30;;;;;;;16.83;9.70;;;6.10;99.90;;;;;;5070997;28;20404;-63
2021/04/17 00:53:55;;;;;;;16.35;9.35;;;6.20;99.90;;;;;;5068313;28;20446;-62
2021/04/17 00:56:21;;;;;;;14.95;9.88;;;6.10;99.90;;;;;;5070169;28;20457;-63
2021/04/17 00:58:47;;;;;;;16.00;9.30;;;6.20;99.90;;;;;;5068905;28;20498;-57
2021/04/17 01:01:14;;;;;;;13.67;9.17;;;6.10;99.90;;;;;;5069893;28;20387;-63
2021/04/17 01:03:44;;;;;;;13.90;9.23;;;6.10;99.90;;;;;;5070716;28;20418;-62
2021/04/17 01:06:24;;;;;;;13.85;9.07;;;6.00;99.90;;;;;;5068072;28;20471;-63
2021/04/17 01:08:58;;;;;;;15.63;9.40;;;6.00;99.90;;;;;;5068865;28;20395;-58
2021/04/17 01:11:34;;;;;;;15.57;9.27;;;6.00;99.90;;;;;;5069388;28;20495;-63
2021/04/17 01:14:01;;;;;;;13.93;9.30;;;5.90;99.90;;;;;;5049933;28;20822;-62
2021/04/17 01:16:27;;;;;;;15.35;9.40;;;5.80;99.90;;;;;;5069941;28;20372;-62
2021/04/17 01:18:54;;;;;;;16.02;9.90;;;5.70;99.90;;;;;;5066738;28;20438;-62
2021/04/17 01:21:22;;;;;;;14.43;9.60;;;5.70;99.90;;;;;;5069871;28;20392;-63
2021/04/17 01:23:54;;;;;;;16.35;9.60;;;5.70;99.90;;;;;;5068069;28;20856;-56
2021/04/17 01:26:22;;;;;;;14.73;10.27;;;5.60;99.90;;;;;;5069649;28;20500;-61
2021/04/17 01:28:52;;;;;;;15.93;9.68;;;5.50;99.90;;;;;;5068011;28;20396;-57
2021/04/17 01:31:20;;;;;;;16.63;10.18;;;5.60;99.90;;;;;;5067907;28;20495;-62
2021/04/17 01:33:50;;;;;;;17.35;10.85;;;5.60;99.90;;;;;;5069849;28;20392;-62
2021/04/17 01:36:17;;;;;;;15.82;9.90;;;5.60;99.90;;;;;;5069215;28;20509;-62
2021/04/17 01:38:47;;;;;;;15.85;9.75;;;5.50;99.90;;;;;;5068471;28;20400;-62
2021/04/17 01:41:35;;;;;;;14.50;9.52;;;5.40;99.90;;;;;;5069079;28;20671;-62
2021/04/17 01:44:09;;;;;;;15.65;9.75;;;5.50;99.90;;;;;;5067293;28;20474;-62
2021/04/17 01:46:55;;;;;;;16.45;10.50;;;5.40;99.90;;;;;;5069793;28;20464;-62
2021/04/17 01:49:22;;;;;;;16.80;10.77;;;5.40;99.90;;;;;;5067743;28;20431;-62
2021/04/17 01:51:49;;;;;;;17.35;11.00;;;5.50;99.90;;;;;;5069407;28;20400;-56
2021/04/17 01:54:20;;;;;;;16.48;11.38;;;5.50;99.90;;;;;;5067820;28;20413;-62
2021/04/17 01:56:47;;;;;;;17.70;11.43;;;5.50;99.90;;;;;;5068894;28;20395;-59
2021/04/17 01:59:17;;;;;;;17.27;10.55;;;5.50;99.90;;;;;;5067375;28;20448;-62
2021/04/17 02:01:43;;;;;;;18.75;11.93;;;5.50;99.90;;;;;;5069827;28;20394;-62
2021/04/17 02:04:09;;;;;;;18.58;11.80;;;5.50;99.90;;;;;;5068772;28;20371;-62
2021/04/17 02:06:35;;;;;;;17.75;11.00;;;5.60;99.90;;;;;;5068322;28;20870;-63
2021/04/17 02:09:03;;;;;;;17.77;11.93;;;5.60;99.90;;;;;;5068263;28;20404;-62
2021/04/17 02:11:29;;;;;;;19.20;11.73;;;5.60;99.90;;;;;;5068199;28;20411;-62
2021/04/17 02:13:54;;;;;;;18.48;11.00;;;5.60;99.90;;;;;;5068886;28;20376;-62
2021/04/17 02:16:40;;;;;;;18.03;11.53;;;5.60;99.90;;;;;;5067294;28;20392;-62
2021/04/17 02:19:10;;;;;;;16.42;11.23;;;5.60;99.90;;;;;;5067932;28;20378;-63
2021/04/17 02:21:43;;;;;;;16.80;11.18;;;5.60;99.90;;;;;;5069405;28;20375;-62
2021/04/17 02:24:09;;;;;;;19.25;11.77;;;5.60;99.90;;;;;;5066903;28;20402;-62
2021/04/17 02:26:39;;;;;;;19.70;11.50;;;5.60;99.90;;;;;;5069344;28;20441;-63
2021/04/17 02:29:07;;;;;;;18.03;11.50;;;5.70;99.90;;;;;;5067977;28;20913;-62
2021/04/17 02:31:33;;;;;;;17.45;11.32;;;5.70;99.90;;;;;;5071038;28;20832;-62
2021/04/17 02:33:58;;;;;;;18.33;11.77;;;5.70;99.90;;;;;;5070340;28;20399;-60
2021/04/17 02:36:24;;;;;;;18.25;12.07;;;5.80;99.90;;;;;;5073246;28;20379;-62
2021/04/17 02:38:50;;;;;;;19.05;12.40;;;5.80;99.90;;;;;;5071481;28;20391;-56
2021/04/17 02:41:17;;;;;;;18.10;11.93;;;5.80;99.90;;;;;;5072740;28;20832;-62
2021/04/17 02:43:46;;;;;;;18.30;12.02;;;5.70;99.90;;;;;;5073569;28;20386;-62
2021/04/17 02:46:12;;;;;;;17.25;11.48;;;5.60;99.90;;;;;;5070708;28;20396;-62
2021/04/17 02:48:40;;;;;;;18.08;11.68;;;5.60;99.90;;;;;;5071314;28;20387;-62
2021/04/17 02:51:06;;;;;;;18.15;11.65;;;6.60;99.90;;;;;;5071806;28;20395;-62
2021/04/17 02:53:31;;;;;;;18.17;11.98;;;5.60;99.90;;;;;;5071132;28;20715;-62
2021/04/17 02:55:57;;;;;;;19.03;12.40;;;5.60;99.90;;;;;;5070983;28;20391;-62
2021/04/17 02:58:23;;;;;;;16.70;11.07;;;5.70;99.90;;;;;;5052888;28;20819;-63
2021/04/17 03:00:49;;;;;;;18.83;11.93;;;5.70;99.90;;;;;;5052944;28;20379;-57
2021/04/17 03:03:16;;;;;;;18.63;12.27;;;5.70;99.90;;;;;;5050242;28;20430;-62
2021/04/17 03:05:42;;;;;;;18.45;12.25;;;5.80;99.90;;;;;;5072950;28;20376;-62
2021/04/17 03:08:09;;;;;;;19.02;12.82;;;5.70;99.90;;;;;;5071799;28;20375;-62
2021/04/17 03:10:35;;;;;;;21.08;13.25;;;5.70;99.90;;;;;;5070353;28;20421;-62
2021/04/17 03:13:02;;;;;;;19.45;12.52;;;5.70;99.90;;;;;;5072198;28;20780;-62
2021/04/17 03:15:28;;;;;;;20.20;12.90;;;5.70;99.90;;;;;;5070889;28;20407;-62
2021/04/17 03:17:54;;;;;;;17.30;12.13;;;5.80;99.90;;;;;;5070295;28;20452;-59
2021/04/17 03:20:19;;;;;;;19.10;12.32;;;6.10;99.90;;;;;;5072397;28;20391;-63
2021/04/17 03:22:45;;;;;;;18.90;13.13;;;5.80;99.90;;;;;;5072838;28;20368;-62
2021/04/17 03:25:11;;;;;;;18.85;12.57;;;5.90;99.90;;;;;;5069591;28;20403;-62
2021/04/17 03:27:39;;;;;;;18.47;11.93;;;5.90;99.90;;;;;;5054477;28;20387;-62
2021/04/17 03:30:07;;;;;;;19.60;12.57;;;5.90;99.90;;;;;;5070822;28;20406;-62
2021/04/17 03:32:34;;;;;;;20.27;12.80;;;5.90;99.90;;;;;;5071533;28;20384;-63
2021/04/17 03:34:59;;;;;;;20.17;12.50;;;5.90;99.90;;;;;;5071407;28;20865;-61
2021/04/17 03:37:26;;;;;;;22.30;12.90;;;6.00;99.90;;;;;;5070456;28;20522;-62
2021/04/17 03:39:51;;;;;;;19.63;12.30;;;5.80;99.90;;;;;;5071365;28;20372;-56
2021/04/17 03:42:17;;;;;;;19.30;12.60;;;5.80;99.90;;;;;;5069479;28;20394;-62
2021/04/17 03:44:43;;;;;;;19.75;11.90;;;5.80;99.90;;;;;;5053675;28;20393;-62
2021/04/17 03:47:10;;;;;;;18.70;12.20;;;5.70;99.90;;;;;;5071086;28;20916;-60
2021/04/17 03:49:35;;;;;;;21.63;12.85;;;5.70;99.90;;;;;;5071031;28;20441;-62
2021/04/17 03:52:01;;;;;;;21.23;12.82;;;5.70;99.90;;;;;;5071142;28;20376;-62
2021/04/17 03:54:27;;;;;;;21.30;13.10;;;5.80;99.90;;;;;;5071144;28;20388;-63
2021/04/17 03:56:53;;;;;;;20.38;12.52;;;6.70;99.90;;;;;;5070063;28;20568;-57
2021/04/17 03:59:18;;;;;;;19.63;12.57;;;5.80;99.90;;;;;;5053986;28;20855;-62
2021/04/17 04:01:44;;;;;;;19.00;12.50;;;6.00;99.90;;;;;;5070037;28;20742;-63
2021/04/17 04:04:09;;;;;;;19.23;12.80;;;5.90;99.90;;;;;;5070852;28;20493;-63
2021/04/17 04:06:35;;;;;;;17.70;11.90;;;5.80;99.90;;;;;;5069590;28;20392;-58
2021/04/17 04:09:00;;;;;;;21.10;12.68;;;7.00;99.90;;;;;;5070233;28;20425;-62
2021/04/17 04:11:26;;;;;;;18.77;12.60;;;5.50;99.90;;;;;;5070198;28;20415;-64
2021/04/17 04:13:52;;;;;;;22.52;13.05;;;5.40;99.90;;;;;;5069840;28;20723;-57
2021/04/17 04:16:17;;;;;;;20.67;13.60;;;5.20;99.90;;;;;;5070833;28;20398;-62
2021/04/17 04:18:43;;;;;;;22.58;13.60;;;5.10;99.90;;;;;;5071011;28;20376;-62
2021/04/17 04:21:09;;;;;;;21.38;13.18;;;5.10;99.90;;;;;;5069569;28;20768;-62
2021/04/17 04:23:34;;;;;;;21.27;13.17;;;5.00;99.90;;;;;;5069444;28;20392;-62
2021/04/17 04:26:00;;;;;;;22.92;13.60;;;4.70;99.90;;;;;;5069908;28;20391;-65
2021/04/17 04:28:25;;;;;;;21.03;13.60;;;5.00;99.90;;;;;;5069488;28;20872;-64
2021/04/17 04:30:51;;;;;;;21.63;13.98;;;4.50;99.90;;;;;;5071213;28;20408;-59
2021/04/17 04:33:17;;;;;;;21.70;14.17;;;4.50;99.90;;;;;;5068647;28;20416;-65
2021/04/17 04:35:43;;;;;;;21.67;13.00;;;4.60;99.90;;;;;;5071004;28;20376;-65
2021/04/17 04:38:08;;;;;;;22.25;13.75;;;4.60;99.90;;;;;;5069087;28;20495;-64
2021/04/17 04:40:34;;;;;;;22.87;13.60;;;4.60;99.90;;;;;;5070318;28;20707;-64
2021/04/17 04:42:59;;;;;;;24.90;14.47;;;5.30;99.90;;;;;;5069036;28;20765;-64
2021/04/17 04:45:25;;;;;;;19.65;12.90;;;4.70;99.90;;;;;;5051447;28;20418;-65
2021/04/17 04:47:51;;;;;;;21.37;13.40;;;4.60;99.90;;;;;;5070943;28;20407;-63
2021/04/17 04:50:16;;;;;;;24.33;14.00;;;4.60;99.90;;;;;;5070072;28;20817;-66
2021/04/17 04:52:42;;;;;;;21.63;13.80;;;4.60;99.90;;;;;;5051697;28;20392;-70
2021/04/17 04:55:08;;;;;;;23.20;13.77;;;4.60;99.90;;;;;;5069738;28;20784;-70
2021/04/17 04:57:34;;;;;;;19.73;12.75;;;4.70;99.90;;;;;;5068925;28;20396;-69
2021/04/17 05:00:00;;;;;;;22.42;13.57;;;4.80;99.90;;;;;;5069867;28;20386;-66
2021/04/17 05:02:25;;;;;;;20.75;13.10;;;4.90;99.90;;;;;;5069572;28;20800;-68
2021/04/17 05:04:51;;;;;;;20.63;13.07;;;5.10;99.90;;;;;;5070732;28;20451;-67
2021/04/17 05:07:17;;;;;;;21.75;13.07;;;5.00;99.90;;;;;;5068515;28;20785;-69
2021/04/17 05:09:43;;;;;;;20.52;13.00;;;4.90;99.90;;;;;;5069248;28;20415;-69
2021/04/17 05:12:09;;;;;;;21.87;13.07;;;4.80;99.90;;;;;;5069777;28;20391;-69
2021/04/17 05:14:34;;;;;;;26.77;14.30;;;4.60;99.90;;;;;;5068922;28;20387;-69
2021/04/17 05:17:00;;;;;;;21.23;13.37;;;4.60;99.90;;;;;;5069520;28;20913;-66
2021/04/17 05:19:26;;;;;;;23.70;14.27;;;4.50;99.90;;;;;;5068501;28;20403;-68
2021/04/17 05:21:52;;;;;;;24.80;13.53;;;4.50;99.90;;;;;;5068828;28;20491;-59
2021/04/17 05:24:18;;;;;;;24.33;13.93;;;4.50;99.90;;;;;;5069736;28;20394;-68
2021/04/17 05:26:44;;;;;;;22.75;13.70;;;4.60;99.90;;;;;;5068942;28;20419;-62
2021/04/17 05:29:10;;;;;;;22.03;14.23;;;4.60;99.90;;;;;;5069338;28;20781;-68
2021/04/17 05:31:35;;;;;;;22.38;13.52;;;4.60;99.90;;;;;;5050893;28;20442;-68
2021/04/17 05:34:02;;;;;;;22.02;13.43;;;4.70;99.90;;;;;;5069450;28;20392;-67
2021/04/17 05:36:28;;;;;;;22.73;13.93;;;4.80;99.90;;;;;;5068517;28;20391;-67
2021/04/17 05:38:54;;;;;;;21.40;13.30;;;5.00;99.90;;;;;;5068927;28;20437;-59
2021/04/17 05:41:20;;;;;;;24.50;14.20;;;5.10;99.90;;;;;;5050871;28;20511;-68
2021/04/17 05:43:46;;;;;;;21.27;13.88;;;5.10;99.90;;;;;;5065963;28;20393;-68
2021/04/17 05:46:12;;;;;;;19.02;13.00;;;5.20;99.90;;;;;;5068945;28;20392;-68
2021/04/17 05:48:38;;;;;;;23.17;13.60;;;5.10;99.90;;;;;;5067729;28;20396;-68
2021/04/17 05:51:04;;;;;;;21.23;13.67;;;5.10;99.90;;;;;;5068683;28;20410;-68
2021/04/17 05:53:30;;;;;;;23.35;14.23;;;5.00;99.90;;;;;;5062605;28;20881;-65
2021/04/17 05:55:56;;;;;;;21.80;14.40;;;5.10;99.90;;;;;;5069005;28;20396;-58
2021/04/17 05:58:21;;;;;;;25.20;14.47;;;4.00;99.90;;;;;;5067496;28;20388;-66
2021/04/17 06:00:47;;;;;;;20.33;13.60;;;5.50;99.90;;;;;;5069253;28;20380;-66
2021/04/17 06:03:12;;;;;;;23.83;14.85;;;5.60;99.90;;;;;;5066016;28;20951;-64
2021/04/17 06:05:38;;;;;;;21.80;14.17;;;5.60;99.90;;;;;;5066819;28;20747;-65
2021/04/17 06:08:04;;;;;;;25.52;13.68;;;6.80;99.90;;;;;;5066122;28;20384;-66
2021/04/17 06:10:30;;;;;;;23.33;13.82;;;6.00;99.90;;;;;;5067799;28;20411;-65
2021/04/17 06:12:56;;;;;;;21.70;12.52;;;6.20;99.90;;;;;;5064992;28;20401;-58
2021/04/17 06:15:22;;;;;;;21.10;12.93;;;6.40;99.90;;;;;;5063829;28;20410;-66
2021/04/17 06:17:47;;;;;;;20.00;12.77;;;6.60;99.90;;;;;;5064757;28;20391;-65
2021/04/17 06:20:13;;;;;;;22.05;13.75;;;6.80;99.90;;;;;;5048723;28;20452;-66
2021/04/17 06:22:39;;;;;;;22.13;13.03;;;6.80;99.90;;;;;;5069258;28;20376;-64
2021/04/17 06:25:07;;;;;;;19.83;12.90;;;6.80;99.90;;;;;;5067742;28;20376;-64
2021/04/17 06:27:33;;;;;;;20.03;13.27;;;7.00;99.90;;;;;;5049699;28;20769;-65
2021/04/17 06:30:00;;;;;;;19.60;12.35;;;7.00;99.90;;;;;;5045204;28;20479;-66
2021/04/17 06:32:25;;;;;;;21.20;13.07;;;7.10;99.90;;;;;;5066543;28;20399;-67
2021/04/17 06:34:51;;;;;;;23.75;16.50;;;7.20;99.90;;;;;;5068062;28;20457;-65
2021/04/17 06:37:17;;;;;;;20.07;13.10;;;7.40;99.90;;;;;;5065773;28;20383;-68
2021/04/17 06:39:42;;;;;;;21.58;13.90;;;7.60;99.90;;;;;;5056755;28;20398;-65
2021/04/17 06:42:15;;;;;;;21.67;13.60;;;7.80;99.90;;;;;;5049330;28;20490;-65
2021/04/17 06:44:45;;;;;;;21.50;13.18;;;7.70;99.90;;;;;;5050095;28;20404;-64
2021/04/17 06:47:13;;;;;;;19.30;12.63;;;7.90;99.90;;;;;;5066071;28;20376;-64
2021/04/17 06:49:41;;;;;;;21.10;13.40;;;8.00;99.90;;;;;;5069221;28;20491;-68
2021/04/17 06:52:09;;;;;;;20.73;12.70;;;8.20;99.90;;;;;;5068085;28;20437;-68
2021/04/17 06:54:35;;;;;;;20.02;12.80;;;8.30;99.90;;;;;;5067099;28;20889;-70
2021/04/17 06:57:01;;;;;;;20.07;13.20;;;8.20;99.90;;;;;;5068147;28;20396;-68
2021/04/17 06:59:31;;;;;;;19.75;12.68;;;8.10;99.90;;;;;;5068170;28;20444;-69
2021/04/17 07:01:57;;;;;;;19.50;12.25;;;8.20;99.90;;;;;;5067749;28;20912;-63
2021/04/17 07:04:23;;;;;;;18.92;11.52;;;8.40;99.90;;;;;;5068778;28;20379;-67
2021/04/17 07:06:49;;;;;;;21.65;11.93;;;8.60;99.90;;;;;;5067076;28;20399;-73
2021/04/17 07:09:15;;;;;;;16.80;11.60;;;8.90;99.90;;;;;;5067721;28;20380;-69
2021/04/17 07:11:40;;;;;;;18.23;11.43;;;9.30;99.90;;;;;;5067738;28;20963;-68
2021/04/17 07:14:09;;;;;;;14.52;10.82;;;10.00;99.90;;;;;;5066470;28;20828;-63
2021/04/17 07:16:57;;;;;;;17.25;11.30;;;11.40;99.90;;;;;;5068121;28;20753;-65
2021/04/17 07:19:24;;;;;;;18.25;11.10;;;12.80;99.90;;;;;;5072412;28;20911;-69
2021/04/17 07:21:50;;;;;;;15.18;10.80;;;13.00;97.80;;;;;;5070715;28;20431;-70
2021/04/17 07:24:26;;;;;;;18.38;12.30;;;12.90;97.20;;;;;;5071528;28;20473;-70
2021/04/17 07:26:52;;;;;;;16.98;12.00;;;13.40;96.40;;;;;;5071587;28;20428;-66
2021/04/17 07:29:19;;;;;;;18.10;12.40;;;14.00;94.30;;;;;;5070629;28;20453;-69
2021/04/17 07:31:54;;;;;;;16.77;12.00;;;13.10;95.50;;;;;;5072582;28;20510;-65
2021/04/17 07:34:22;;;;;;;21.67;12.83;;;12.30;97.00;;;;;;5070753;28;20407;-65
2021/04/17 07:36:55;;;;;;;19.10;10.70;;;12.20;97.60;;;;;;5052977;28;20402;-65
2021/04/17 07:39:37;;;;;;;18.35;11.43;;;12.30;97.10;;;;;;5069784;28;20399;-66
2021/04/17 07:42:05;;;;;;;14.75;10.52;;;12.80;96.10;;;;;;5070459;28;20470;-69
2021/04/17 07:44:36;;;;;;;15.32;10.50;;;13.10;95.10;;;;;;5072326;28;20461;-69
2021/04/17 07:47:04;;;;;;;15.00;11.10;;;13.80;93.70;;;;;;5067185;28;20384;-67
2021/04/17 07:49:29;;;;;;;15.25;10.15;;;14.70;91.90;;;;;;5070716;28;20441;-65
2021/04/17 07:52:01;;;;;;;15.50;10.80;;;14.10;91.10;;;;;;5066943;28;20415;-61
2021/04/17 07:54:28;;;;;;;14.30;10.75;;;15.80;90.70;;;;;;5069668;28;20462;-65
2021/04/17 07:56:54;;;;;;;15.10;10.53;;;16.40;87.40;;;;;;5071103;28;20417;-59
2021/04/17 07:59:22;;;;;;;17.77;11.32;;;16.40;83.10;;;;;;5069187;28;20391;-65
2021/04/17 08:01:50;;;;;;;15.90;11.30;;;17.00;80.80;;;;;;5069513;28;20438;-64
2021/04/17 08:04:26;;;;;;;13.75;10.13;;;17.00;76.00;;;;;;5070759;28;20382;-65
2021/04/17 08:06:53;;;;;;;14.50;10.00;;;16.50;73.10;;;;;;5071688;28;20382;-65
2021/04/17 08:09:22;;;;;;;15.45;9.57;;;16.70;71.70;;;;;;5068907;28;20421;-65
2021/04/17 08:11:54;;;;;;;13.90;9.90;;;16.80;70.90;;;;;;5070708;28;20407;-68
2021/04/17 08:14:22;;;;;;;14.50;9.60;;;16.30;71.40;;;;;;5069899;28;20466;-63
2021/04/17 08:16:49;;;;;;;14.00;10.40;;;16.80;71.60;;;;;;5068751;28;20388;-65
2021/04/17 08:19:15;;;;;;;15.10;10.80;;;16.90;70.40;;;;;;5068994;28;20478;-63
2021/04/17 08:21:41;;;;;;;15.93;10.50;;;16.40;72.00;;;;;;5053352;28;20423;-67
2021/04/17 08:24:08;;;;;;;13.65;10.15;;;15.50;75.20;;;;;;5068903;28;20438;-67
2021/04/17 08:26:35;;;;;;;13.65;9.85;;;15.40;75.50;;;;;;5070430;28;20545;-64
2021/04/17 08:29:02;;;;;;;15.05;9.55;;;16.60;73.40;;;;;;5063489;28;20435;-63
2021/04/17 08:31:31;;;;;;;14.40;9.23;;;17.30;68.30;;;;;;5070641;28;20457;-64
2021/04/17 08:34:08;;;;;;;13.20;9.90;;;17.10;64.70;;;;;;5070471;28;20412;-59
2021/04/17 08:36:37;;;;;;;12.80;9.10;;;16.70;65.90;;;;;;5064911;28;20934;-65
2021/04/17 08:39:06;;;;;;;17.87;9.77;;;16.80;66.10;;;;;;5068733;28;20862;-63
2021/04/17 08:41:43;;;;;;;12.90;9.45;;;16.90;64.30;;;;;;5070571;28;20388;-65
2021/04/17 08:44:32;;;;;;;19.13;13.10;;;16.10;64.30;;;;;;5070114;28;20391;-65
2021/04/17 08:46:59;;;;;;;13.50;8.98;;;14.90;66.80;;;;;;5068258;28;20400;-58
2021/04/17 08:49:30;;;;;;;13.65;9.43;;;13.60;71.10;;;;;;5070249;28;20387;-61
2021/04/17 08:52:23;;;;;;;13.82;8.77;;;13.30;72.70;;;;;;5068956;28;20749;-59
2021/04/17 08:55:00;;;;;;;13.90;9.90;;;13.40;73.90;;;;;;5056117;28;20881;-63
2021/04/17 08:57:26;;;;;;;12.82;8.77;;;13.80;72.90;;;;;;5050615;28;20414;-62
2021/04/17 08:59:56;;;;;;;12.93;8.90;;;13.80;71.80;;;;;;5069472;28;20388;-65
2021/04/17 09:02:23;;;;;;;13.25;8.80;;;13.80;72.50;;;;;;5068391;28;20940;-61
2021/04/17 09:05:06;;;;;;;13.82;7.40;;;13.50;74.10;;;;;;5068567;28;20858;-62
2021/04/17 09:07:35;;;;;;;13.52;7.50;;;14.10;72.50;;;;;;5070076;28;20410;-64
2021/04/17 09:10:22;;;;;;;10.55;7.28;;;13.80;71.90;;;;;;5069103;28;20379;-63
2021/04/17 09:13:11;;;;;;;12.05;7.00;;;14.10;70.10;;;;;;5067097;28;20464;-64
2021/04/17 09:15:53;;;;;;;11.07;7.40;;;14.90;69.20;;;;;;5068458;28;20417;-64
2021/04/17 09:21:11;;;;;;;11.32;7.25;;;16.00;63.20;;;;;;5065517;28;20942;-60
2021/04/17 09:23:46;;;;;;;14.85;7.00;;;17.30;60.50;;;;;;5062159;28;20372;-62
2021/04/17 09:26:30;;;;;;;11.53;7.67;;;17.20;57.80;;;;;;5067030;28;20445;-64
2021/04/17 09:29:05;;;;;;;11.30;6.50;;;16.90;58.30;;;;;;5067798;28;20475;-61
2021/04/17 09:31:38;;;;;;;10.70;6.90;;;16.60;58.60;;;;;;5069628;28;20423;-64
2021/04/17 09:34:14;;;;;;;10.75;6.60;;;16.10;59.30;;;;;;5066788;28;20484;-64
2021/04/17 09:36:40;;;;;;;11.55;6.50;;;15.60;58.50;;;;;;5067656;28;20394;-64
2021/04/17 09:39:31;;;;;;;14.70;6.60;;;16.00;60.80;;;;;;5065141;28;20380;-62
2021/04/17 09:42:01;;;;;;;12.27;7.20;;;17.50;59.10;;;;;;5064016;28;20403;-58
2021/04/17 09:44:45;;;;;;;11.73;7.20;;;18.80;56.20;;;;;;5064602;28;20378;-65
2021/04/17 09:47:14;;;;;;;10.10;6.90;;;19.80;54.60;;;;;;5061220;28;20449;-63
2021/04/17 09:49:46;;;;;;;10.33;6.90;;;20.10;51.70;;;;;;5065864;28;20395;-61
2021/04/17 09:52:17;;;;;;;10.68;6.90;;;18.60;53.30;;;;;;5062025;28;20408;-62
2021/04/17 09:54:44;;;;;;;9.45;6.15;;;18.00;54.30;;;;;;5067681;28;20478;-61
2021/04/17 09:57:10;;;;;;;13.55;10.30;;;17.50;53.30;;;;;;5067089;28;20478;-64
2021/04/17 09:59:36;;;;;;;10.00;5.20;;;17.30;55.40;;;;;;5067548;28;20490;-61
2021/04/17 10:02:03;;;;;;;9.50;5.40;;;17.30;53.40;;;;;;5063321;28;20474;-64
2021/04/17 10:04:59;;;;;;;8.35;5.00;;;17.40;52.70;;;;;;5065516;28;20528;-62
2021/04/17 10:07:26;;;;;;;8.80;4.50;;;16.30;50.90;;;;;;5067128;28;20391;-63
2021/04/17 10:10:04;;;;;;;7.50;4.07;;;15.80;52.40;;;;;;5066147;28;20396;-66
2021/04/17 10:12:30;;;;;;;9.80;4.50;;;15.20;52.50;;;;;;5066295;28;20400;-66
2021/04/17 10:15:36;;;;;;;10.60;4.85;;;14.80;53.30;;;;;;5065444;28;20387;-65
2021/04/17 10:18:04;;;;;;;8.07;4.57;;;14.30;55.80;;;;;;4968616;28;20469;-64
2021/04/17 10:20:30;;;;;;;7.53;4.70;;;14.10;57.00;;;;;;4983199;28;20419;-65
2021/04/17 10:23:02;;;;;;;10.00;3.90;;;15.50;58.90;;;;;;5012217;28;20391;-62
2021/04/17 10:25:34;;;;;;;9.25;3.83;;;15.80;58.80;;;;;;5066916;28;20470;-64
2021/04/17 10:28:17;;;;;;;8.57;3.90;;;13.50;56.80;;;;;;5065479;28;20495;-61
2021/04/17 10:30:45;;;;;;;10.52;4.65;;;13.60;57.20;;;;;;5064950;28;20503;-66
2021/04/17 10:33:16;;;;;;;9.80;4.20;;;13.70;57.40;;;;;;5061314;28;20543;-66
2021/04/17 10:35:44;;;;;;;10.80;4.70;;;13.70;57.00;;;;;;5060051;28;20399;-66
2021/04/17 10:38:20;;;;;;;10.88;4.60;;;13.70;58.00;;;;;;5046279;28;20400;-68
2021/04/17 10:40:46;;;;;;;8.60;4.25;;;13.90;57.80;;;;;;5065564;28;20436;-66
2021/04/17 10:43:17;;;;;;;8.73;4.40;;;13.60;58.50;;;;;;5064390;28;20820;-66
2021/04/17 10:45:44;;;;;;;7.53;4.15;;;13.70;58.10;;;;;;5063424;28;20388;-67
2021/04/17 10:48:14;;;;;;;8.65;4.00;;;13.60;58.10;;;;;;5041173;28;20705;-68
2021/04/17 10:51:02;;;;;;;8.60;3.90;;;13.80;57.00;;;;;;5065184;28;20452;-64
2021/04/17 10:53:34;;;;;;;7.93;3.67;;;14.00;56.00;;;;;;5058055;28;20424;-65
2021/04/17 10:56:09;;;;;;;9.02;4.30;;;14.50;57.00;;;;;;5069387;28;20415;-61
2021/04/17 10:58:36;;;;;;;8.63;3.90;;;14.60;56.70;;;;;;5069307;28;20387;-64
2021/04/17 11:01:05;;;;;;;9.15;4.47;;;14.10;57.60;;;;;;5068515;28;20393;-61
2021/04/17 11:03:39;;;;;;;9.43;4.70;;;13.50;58.20;;;;;;5067781;28;20407;-64
2021/04/17 11:06:21;;;;;;;9.70;4.35;;;13.10;60.00;;;;;;5070028;28;20399;-63
2021/04/17 11:08:49;;;;;;;8.00;3.60;;;12.70;58.80;;;;;;5069930;28;20392;-63
2021/04/17 11:11:21;;;;;;;6.80;3.70;;;12.60;57.60;;;;;;5067326;28;20494;-63
2021/04/17 11:14:00;;;;;;;9.50;4.17;;;12.90;56.50;;;;;;5064509;28;20438;-62
2021/04/17 11:16:42;;;;;;;7.80;4.10;;;13.00;57.00;;;;;;5050682;28;20849;-62
2021/04/17 11:19:31;;;;;;;7.00;3.58;;;13.30;57.30;;;;;;5062251;28;20398;-65
2021/04/17 11:22:12;;;;;;;9.85;4.13;;;13.70;56.10;;;;;;5072305;28;20761;-65
2021/04/17 11:24:40;;;;;;;9.75;3.90;;;13.60;56.80;;;;;;5069654;28;20413;-63
2021/04/17 11:27:06;;;;;;;6.97;3.90;;;13.50;57.30;;;;;;5046235;28;20413;-64
2021/04/17 11:29:32;;;;;;;9.32;4.10;;;13.30;57.70;;;;;;5069049;28;20399;-63
2021/04/17 11:31:58;;;;;;;9.05;4.35;;;13.30;58.50;;;;;;5063162;28;20415;-63
2021/04/17 11:34:25;;;;;;;8.43;3.53;;;13.30;57.80;;;;;;5064307;28;20441;-64
2021/04/17 11:36:51;;;;;;;9.37;4.10;;;13.80;57.70;;;;;;5064998;28;20737;-66
2021/04/17 11:39:18;;;;;;;10.18;4.43;;;14.40;57.60;;;;;;5063655;28;20484;-66
2021/04/17 11:41:45;;;;;;;7.25;3.63;;;14.70;56.30;;;;;;5072466;28;20777;-66
2021/04/17 11:44:11;;;;;;;6.60;3.55;;;14.20;55.90;;;;;;5065594;28;20921;-64
2021/04/17 11:46:38;;;;;;;7.10;3.60;;;13.90;53.80;;;;;;5071982;28;20380;-66
2021/04/17 11:49:04;;;;;;;8.10;3.75;;;14.00;53.40;;;;;;5066017;28;20881;-64
2021/04/17 11:51:30;;;;;;;8.60;3.90;;;14.10;53.80;;;;;;5067890;28;20407;-67
2021/04/17 11:53:56;;;;;;;7.38;3.80;;;14.30;54.30;;;;;;5067191;28;20476;-64
2021/04/17 11:56:22;;;;;;;7.87;3.90;;;12.60;53.00;;;;;;5047547;28;20399;-64
2021/04/17 11:58:49;;;;;;;6.57;3.85;;;14.10;54.90;;;;;;5067726;28;20390;-66
2021/04/17 12:01:17;;;;;;;7.80;3.80;;;14.40;54.80;;;;;;5064539;28;20403;-64
2021/04/17 12:03:42;;;;;;;7.07;3.78;;;14.40;54.00;;;;;;5066679;28;20401;-64
2021/04/17 12:06:10;;;;;;;7.43;3.70;;;12.80;54.00;;;;;;5069444;28;20442;-65
2021/04/17 12:08:36;;;;;;;8.73;4.03;;;14.30;55.30;;;;;;5044245;28;20413;-65
2021/04/17 12:11:02;;;;;;;6.95;3.50;;;14.30;55.20;;;;;;5065404;28;20457;-61
2021/04/17 12:13:29;;;;;;;8.10;3.70;;;14.20;54.60;;;;;;5066064;28;20818;-70
2021/04/17 12:15:55;;;;;;;7.60;3.22;;;14.00;54.60;;;;;;5052021;28;20486;-67
2021/04/17 12:18:20;;;;;;;8.30;4.30;;;14.20;54.80;;;;;;5062891;28;21075;-66
2021/04/17 12:20:46;;;;;;;6.97;3.30;;;13.90;55.40;;;;;;5070900;28;20375;-65
2021/04/17 12:23:13;;;;;;;8.30;3.63;;;13.50;55.30;;;;;;5064414;28;20381;-66
2021/04/17 12:25:39;;;;;;;7.88;3.40;;;13.50;56.60;;;;;;5041334;28;20405;-64
2021/04/17 12:28:05;;;;;;;7.55;3.60;;;13.60;56.40;;;;;;5062404;28;20489;-66
2021/04/17 12:30:31;;;;;;;6.78;3.05;;;14.10;55.90;;;;;;5056393;28;20477;-69
2021/04/17 12:32:57;;;;;;;7.53;3.33;;;14.60;54.20;;;;;;5056919;28;20757;-75
2021/04/17 12:35:22;;;;;;;8.98;3.70;;;14.60;53.90;;;;;;5063054;28;20407;-73
2021/04/17 12:37:49;;;;;;;5.97;3.20;;;14.40;52.10;;;;;;5060770;28;20382;-73
2021/04/17 12:40:16;;;;;;;7.93;3.38;;;14.30;53.10;;;;;;5052828;28;20879;-73
2021/04/17 12:42:43;;;;;;;5.97;2.83;;;14.30;53.40;;;;;;5062851;28;20910;-69
2021/04/17 12:45:11;;;;;;;7.22;2.92;;;14.20;53.70;;;;;;5058473;28;20385;-68
2021/04/17 12:47:41;;;;;;;7.20;3.10;;;13.90;53.50;;;;;;5049830;28;20432;-65